createdAt,value
2022-07-27T00:00:52.532Z,940.18
2022-07-27T00:01:52.484Z,940.20
2022-07-27T00:02:52.499Z,940.22
2022-07-27T00:03:52.571Z,940.23
2022-07-27T00:04:52.530Z,940.26
2022-07-27T00:05:52.545Z,940.24
2022-07-27T00:06:52.558Z,940.23
2022-07-27T00:07:52.571Z,940.21
2022-07-27T00:08:52.585Z,940.22
2022-07-27T00:09:52.600Z,940.23
2022-07-27T00:10:52.618Z,940.27
2022-07-27T00:11:52.626Z,940.25
2022-07-27T00:12:52.642Z,940.30
2022-07-27T00:13:52.657Z,940.31
2022-07-27T00:14:52.671Z,940.33
2022-07-27T00:15:52.761Z,940.34
2022-07-27T00:16:52.886Z,940.37
2022-07-27T00:17:52.713Z,940.34
2022-07-27T00:18:52.727Z,940.34
2022-07-27T00:19:52.745Z,940.38
2022-07-27T00:20:52.758Z,940.37
2022-07-27T00:21:52.807Z,940.38
2022-07-27T00:22:52.795Z,940.40
2022-07-27T00:23:52.799Z,940.48
2022-07-27T00:24:52.821Z,940.48
2022-07-27T00:25:52.831Z,940.48
2022-07-27T00:26:52.840Z,940.50
2022-07-27T00:27:52.858Z,940.47
2022-07-27T00:28:52.868Z,940.52
2022-07-27T00:29:52.885Z,940.49
2022-07-27T00:30:52.899Z,940.49
2022-07-27T00:31:52.981Z,940.54
2022-07-27T00:32:52.934Z,940.48
2022-07-27T00:33:52.940Z,940.53
2022-07-27T00:34:52.959Z,940.52
2022-07-27T00:35:52.970Z,940.52
2022-07-27T00:36:52.985Z,940.50
2022-07-27T00:37:53.002Z,940.49
2022-07-27T00:38:53.023Z,940.49
2022-07-27T00:39:53.027Z,940.44
2022-07-27T00:40:53.040Z,940.45
2022-07-27T00:41:53.065Z,940.47
2022-07-27T00:42:53.069Z,940.48
2022-07-27T00:43:53.085Z,940.52
2022-07-27T00:44:53.098Z,940.47
2022-07-27T00:45:53.116Z,940.50
2022-07-27T00:46:53.176Z,940.47
2022-07-27T00:47:55.040Z,940.48
2022-07-27T00:48:53.194Z,940.53
2022-07-27T00:49:53.170Z,940.51
2022-07-27T00:50:53.187Z,940.50
2022-07-27T00:51:53.199Z,940.52
2022-07-27T00:52:53.215Z,940.50
2022-07-27T00:53:53.226Z,940.52
2022-07-27T00:54:53.240Z,940.50
2022-07-27T00:55:53.261Z,940.52
2022-07-27T00:56:53.268Z,940.55
2022-07-27T00:57:59.064Z,940.52
2022-07-27T00:58:53.298Z,940.54
2022-07-27T00:59:53.311Z,940.52
2022-07-27T01:00:53.324Z,940.51
2022-07-27T01:01:53.440Z,940.54
2022-07-27T01:02:53.546Z,940.52
2022-07-27T01:03:53.366Z,940.52
2022-07-27T01:04:53.911Z,940.49
2022-07-27T01:05:53.398Z,940.52
2022-07-27T01:06:53.411Z,940.53
2022-07-27T01:07:53.427Z,940.55
2022-07-27T01:08:53.443Z,940.54
2022-07-27T01:09:53.453Z,940.55
2022-07-27T01:10:53.670Z,940.53
2022-07-27T01:11:53.482Z,940.56
2022-07-27T01:12:53.496Z,940.55
2022-07-27T01:13:53.510Z,940.53
2022-07-27T01:14:53.525Z,940.55
2022-07-27T01:15:53.641Z,940.55
2022-07-27T01:16:53.554Z,940.56
2022-07-27T01:17:53.571Z,940.54
2022-07-27T01:18:53.580Z,940.56
2022-07-27T01:19:53.596Z,940.55
2022-07-27T01:20:53.608Z,940.55
2022-07-27T01:21:53.623Z,940.55
2022-07-27T01:22:53.637Z,940.52
2022-07-27T01:23:53.653Z,940.53
2022-07-27T01:24:53.665Z,940.54
2022-07-27T01:25:53.680Z,940.50
2022-07-27T01:26:53.696Z,940.53
2022-07-27T01:27:53.709Z,940.47
2022-07-27T01:28:53.722Z,940.51
2022-07-27T01:29:53.735Z,940.48
2022-07-27T01:30:53.812Z,940.47
2022-07-27T01:31:53.764Z,940.50
2022-07-27T01:32:53.781Z,940.52
2022-07-27T01:33:53.792Z,940.51
2022-07-27T01:34:53.808Z,940.51
2022-07-27T01:35:53.822Z,940.51
2022-07-27T01:36:53.836Z,940.49
2022-07-27T01:37:54.049Z,940.57
2022-07-27T01:38:53.865Z,940.53
2022-07-27T01:39:53.875Z,940.50
2022-07-27T01:40:53.900Z,940.53
2022-07-27T01:41:53.903Z,940.50
2022-07-27T01:42:53.924Z,940.50
2022-07-27T01:43:53.933Z,940.51
2022-07-27T01:44:53.947Z,940.49
2022-07-27T01:45:53.997Z,940.46
2022-07-27T01:46:54.062Z,940.47
2022-07-27T01:47:53.990Z,940.49
2022-07-27T01:48:54.075Z,940.46
2022-07-27T01:49:54.019Z,940.44
2022-07-27T01:50:54.031Z,940.48
2022-07-27T01:51:54.046Z,940.47
2022-07-27T01:52:54.062Z,940.44
2022-07-27T01:53:54.076Z,940.47
2022-07-27T01:54:54.089Z,940.47
2022-07-27T01:55:54.103Z,940.48
2022-07-27T01:56:54.117Z,940.48
2022-07-27T01:57:54.139Z,940.45
2022-07-27T01:58:54.144Z,940.45
2022-07-27T01:59:54.162Z,940.45
2022-07-27T02:00:54.173Z,940.47
2022-07-27T02:01:54.276Z,940.43
2022-07-27T02:02:54.203Z,940.46
2022-07-27T02:03:54.218Z,940.44
2022-07-27T02:04:54.293Z,940.41
2022-07-27T02:05:54.245Z,940.36
2022-07-27T02:06:54.258Z,940.40
2022-07-27T02:07:54.271Z,940.39
2022-07-27T02:08:54.289Z,940.33
2022-07-27T02:09:54.302Z,940.33
2022-07-27T02:10:54.314Z,940.31
2022-07-27T02:11:54.331Z,940.31
2022-07-27T02:12:54.342Z,940.31
2022-07-27T02:13:54.359Z,940.27
2022-07-27T02:14:54.743Z,940.29
2022-07-27T02:15:54.754Z,940.27
2022-07-27T02:16:54.399Z,940.32
2022-07-27T02:17:54.411Z,940.31
2022-07-27T02:18:54.427Z,940.31
2022-07-27T02:19:54.442Z,940.31
2022-07-27T02:20:54.454Z,940.30
2022-07-27T02:21:54.470Z,940.30
2022-07-27T02:22:54.483Z,940.33
2022-07-27T02:23:54.497Z,940.33
2022-07-27T02:24:54.514Z,940.32
2022-07-27T02:25:54.524Z,940.34
2022-07-27T02:26:54.539Z,940.33
2022-07-27T02:27:54.555Z,940.29
2022-07-27T02:28:54.568Z,940.32
2022-07-27T02:29:54.582Z,940.26
2022-07-27T02:30:54.596Z,940.30
2022-07-27T02:31:54.611Z,940.30
2022-07-27T02:32:54.702Z,940.34
2022-07-27T02:33:54.638Z,940.32
2022-07-27T02:34:54.652Z,940.33
2022-07-27T02:35:54.665Z,940.33
2022-07-27T02:36:54.689Z,940.34
2022-07-27T02:37:54.698Z,940.35
2022-07-27T02:38:54.707Z,940.33
2022-07-27T02:39:54.722Z,940.34
2022-07-27T02:40:54.740Z,940.33
2022-07-27T02:41:54.749Z,940.28
2022-07-27T02:42:54.763Z,940.29
2022-07-27T02:43:54.777Z,940.32
2022-07-27T02:44:54.800Z,940.27
2022-07-27T02:45:54.852Z,940.28
2022-07-27T02:46:54.820Z,940.30
2022-07-27T02:47:54.841Z,940.30
2022-07-27T02:48:54.977Z,940.33
2022-07-27T02:49:54.864Z,940.29
2022-07-27T02:50:54.876Z,940.28
2022-07-27T02:51:54.892Z,940.24
2022-07-27T02:52:54.906Z,940.25
2022-07-27T02:53:54.919Z,940.23
2022-07-27T02:54:54.933Z,940.18
2022-07-27T02:55:54.947Z,940.16
2022-07-27T02:56:54.964Z,940.17
2022-07-27T02:57:54.976Z,940.12
2022-07-27T02:58:54.989Z,940.12
2022-07-27T02:59:55.002Z,940.13
2022-07-27T03:00:58.346Z,940.14
2022-07-27T03:01:55.097Z,940.15
2022-07-27T03:02:55.045Z,940.11
2022-07-27T03:03:55.094Z,940.13
2022-07-27T03:04:55.074Z,940.09
2022-07-27T03:05:55.087Z,940.06
2022-07-27T03:06:55.104Z,940.05
2022-07-27T03:07:55.116Z,940.06
2022-07-27T03:08:55.130Z,940.03
2022-07-27T03:09:55.141Z,940.06
2022-07-27T03:10:55.157Z,940.03
2022-07-27T03:11:55.170Z,940.04
2022-07-27T03:12:55.185Z,940.01
2022-07-27T03:13:55.199Z,940.01
2022-07-27T03:14:55.213Z,939.98
2022-07-27T03:15:55.304Z,940.03
2022-07-27T03:16:55.241Z,940.03
2022-07-27T03:17:55.256Z,940.03
2022-07-27T03:18:55.270Z,940.00
2022-07-27T03:19:55.282Z,939.99
2022-07-27T03:20:55.298Z,940.02
2022-07-27T03:21:55.314Z,940.04
2022-07-27T03:22:55.342Z,940.05
2022-07-27T03:23:55.343Z,940.01
2022-07-27T03:24:55.361Z,940.05
2022-07-27T03:25:55.439Z,940.08
2022-07-27T03:26:55.380Z,940.09
2022-07-27T03:27:58.224Z,940.11
2022-07-27T03:28:55.420Z,940.12
2022-07-27T03:29:55.424Z,940.14
2022-07-27T03:30:55.530Z,940.11
2022-07-27T03:31:55.451Z,940.14
2022-07-27T03:32:55.477Z,940.09
2022-07-27T03:33:55.478Z,940.10
2022-07-27T03:34:55.541Z,940.10
2022-07-27T03:35:55.507Z,940.09
2022-07-27T03:36:55.519Z,940.06
2022-07-27T03:37:55.537Z,940.05
2022-07-27T03:38:55.548Z,940.06
2022-07-27T03:39:55.563Z,940.05
2022-07-27T03:40:55.576Z,940.06
2022-07-27T03:41:55.589Z,940.02
2022-07-27T03:42:55.605Z,940.04
2022-07-27T03:43:55.619Z,940.00
2022-07-27T03:44:55.632Z,939.97
2022-07-27T03:45:55.671Z,939.97
2022-07-27T03:46:55.660Z,939.92
2022-07-27T03:47:55.674Z,939.88
2022-07-27T03:48:55.739Z,939.84
2022-07-27T03:49:55.702Z,939.76
2022-07-27T03:50:55.714Z,939.76
2022-07-27T03:51:55.729Z,939.72
2022-07-27T03:52:55.750Z,939.73
2022-07-27T03:53:55.755Z,939.72
2022-07-27T03:54:55.771Z,939.70
2022-07-27T03:55:55.785Z,939.70
2022-07-27T03:56:55.801Z,939.70
2022-07-27T03:57:55.820Z,939.66
2022-07-27T03:58:55.825Z,939.70
2022-07-27T03:59:55.840Z,939.67
2022-07-27T04:00:55.950Z,939.67
2022-07-27T04:01:55.869Z,939.71
2022-07-27T04:02:55.995Z,939.66
2022-07-27T04:03:55.896Z,939.69
2022-07-27T04:04:55.911Z,939.75
2022-07-27T04:05:55.925Z,939.72
2022-07-27T04:06:55.938Z,939.71
2022-07-27T04:07:55.952Z,939.69
2022-07-27T04:08:59.698Z,939.68
2022-07-27T04:09:55.980Z,939.71
2022-07-27T04:10:55.993Z,939.65
2022-07-27T04:11:56.007Z,939.65
2022-07-27T04:12:56.021Z,939.65
2022-07-27T04:13:56.033Z,939.63
2022-07-27T04:14:56.047Z,939.62
2022-07-27T04:15:56.063Z,939.61
2022-07-27T04:16:56.118Z,939.64
2022-07-27T04:17:57.686Z,939.66
2022-07-27T04:18:56.102Z,939.66
2022-07-27T04:19:56.126Z,939.59
2022-07-27T04:20:56.139Z,939.59
2022-07-27T04:21:56.147Z,939.58
2022-07-27T04:22:56.160Z,939.61
2022-07-27T04:23:56.175Z,939.58
2022-07-27T04:24:56.188Z,939.60
2022-07-27T04:25:56.202Z,939.66
2022-07-27T04:26:56.213Z,939.63
2022-07-27T04:27:56.228Z,939.63
2022-07-27T04:28:56.242Z,939.62
2022-07-27T04:29:56.257Z,939.61
2022-07-27T04:30:56.327Z,939.61
2022-07-27T04:31:56.290Z,939.61
2022-07-27T04:32:56.297Z,939.60
2022-07-27T04:33:56.311Z,939.57
2022-07-27T04:34:56.324Z,939.56
2022-07-27T04:35:56.337Z,939.56
2022-07-27T04:36:56.355Z,939.56
2022-07-27T04:37:58.674Z,939.53
2022-07-27T04:38:56.383Z,939.49
2022-07-27T04:39:56.395Z,939.51
2022-07-27T04:40:58.455Z,939.47
2022-07-27T04:41:56.422Z,939.48
2022-07-27T04:42:56.436Z,939.47
2022-07-27T04:43:56.450Z,939.47
2022-07-27T04:44:56.464Z,939.43
2022-07-27T04:45:56.536Z,939.40
2022-07-27T04:46:56.493Z,939.38
2022-07-27T04:47:56.506Z,939.37
2022-07-27T04:48:56.565Z,939.35
2022-07-27T04:49:56.533Z,939.36
2022-07-27T04:50:56.550Z,939.34
2022-07-27T04:51:56.563Z,939.40
2022-07-27T04:52:56.575Z,939.38
2022-07-27T04:53:58.619Z,939.41
2022-07-27T04:54:56.603Z,939.40
2022-07-27T04:55:56.616Z,939.41
2022-07-27T04:56:56.630Z,939.40
2022-07-27T04:57:56.642Z,939.35
2022-07-27T04:58:56.657Z,939.36
2022-07-27T04:59:56.671Z,939.35
2022-07-27T05:00:56.731Z,939.32
2022-07-27T05:01:56.699Z,939.32
2022-07-27T05:02:56.714Z,939.29
2022-07-27T05:03:56.785Z,939.32
2022-07-27T05:04:56.739Z,939.32
2022-07-27T05:05:56.754Z,939.33
2022-07-27T05:06:56.767Z,939.31
2022-07-27T05:07:56.783Z,939.32
2022-07-27T05:08:56.795Z,939.27
2022-07-27T05:09:56.811Z,939.28
2022-07-27T05:10:56.823Z,939.23
2022-07-27T05:11:56.846Z,939.27
2022-07-27T05:12:56.850Z,939.22
2022-07-27T05:13:56.871Z,939.20
2022-07-27T05:14:56.882Z,939.20
2022-07-27T05:15:56.892Z,939.18
2022-07-27T05:16:56.961Z,939.15
2022-07-27T05:17:56.921Z,939.14
2022-07-27T05:18:56.933Z,939.13
2022-07-27T05:19:56.946Z,939.12
2022-07-27T05:20:56.962Z,939.08
2022-07-27T05:21:56.974Z,939.10
2022-07-27T05:22:56.988Z,939.06
2022-07-27T05:23:57.003Z,939.06
2022-07-27T05:24:57.015Z,939.05
2022-07-27T05:25:57.031Z,939.03
2022-07-27T05:26:57.043Z,939.02
2022-07-27T05:27:57.058Z,938.97
2022-07-27T05:28:57.074Z,938.99
2022-07-27T05:29:57.085Z,938.95
2022-07-27T05:30:57.098Z,938.97
2022-07-27T05:31:57.307Z,938.97
2022-07-27T05:32:57.127Z,938.97
2022-07-27T05:33:58.464Z,938.91
2022-07-27T05:34:57.255Z,938.90
2022-07-27T05:35:57.168Z,938.90
2022-07-27T05:36:57.181Z,938.87
2022-07-27T05:37:57.195Z,938.92
2022-07-27T05:38:57.209Z,938.91
2022-07-27T05:39:57.223Z,938.90
2022-07-27T05:40:57.357Z,938.89
2022-07-27T05:41:57.251Z,938.85
2022-07-27T05:42:57.264Z,938.86
2022-07-27T05:43:57.282Z,938.85
2022-07-27T05:44:57.294Z,938.86
2022-07-27T05:45:57.336Z,938.80
2022-07-27T05:46:57.323Z,938.82
2022-07-27T05:47:57.335Z,938.83
2022-07-27T05:48:57.369Z,938.84
2022-07-27T05:49:57.358Z,938.77
2022-07-27T05:50:57.373Z,938.77
2022-07-27T05:51:57.386Z,938.77
2022-07-27T05:52:57.402Z,938.76
2022-07-27T05:53:57.414Z,938.77
2022-07-27T05:54:57.433Z,938.79
2022-07-27T05:55:59.177Z,938.78
2022-07-27T05:56:57.458Z,938.77
2022-07-27T05:57:57.482Z,938.76
2022-07-27T05:58:57.488Z,938.77
2022-07-27T05:59:57.498Z,938.76
2022-07-27T06:00:57.590Z,938.74
2022-07-27T06:01:57.524Z,938.74
2022-07-27T06:02:57.541Z,938.79
2022-07-27T06:03:57.625Z,938.76
2022-07-27T06:04:57.566Z,938.81
2022-07-27T06:05:57.580Z,938.79
2022-07-27T06:06:57.593Z,938.72
2022-07-27T06:07:57.608Z,938.73
2022-07-27T06:08:57.639Z,938.70
2022-07-27T06:09:57.635Z,938.74
2022-07-27T06:10:57.648Z,938.72
2022-07-27T06:11:57.662Z,938.77
2022-07-27T06:12:57.676Z,938.78
2022-07-27T06:13:57.689Z,938.74
2022-07-27T06:14:57.702Z,938.78
2022-07-27T06:15:57.984Z,938.75
2022-07-27T06:16:57.809Z,938.75
2022-07-27T06:17:57.745Z,938.73
2022-07-27T06:18:57.758Z,938.80
2022-07-27T06:19:57.771Z,938.76
2022-07-27T06:20:57.787Z,938.76
2022-07-27T06:21:57.800Z,938.78
2022-07-27T06:22:57.822Z,938.76
2022-07-27T06:23:57.832Z,938.71
2022-07-27T06:24:57.842Z,938.72
2022-07-27T06:25:57.857Z,938.77
2022-07-27T06:26:57.867Z,938.74
2022-07-27T06:27:57.882Z,938.72
2022-07-27T06:28:57.896Z,938.70
2022-07-27T06:29:57.910Z,938.64
2022-07-27T06:30:57.923Z,938.62
2022-07-27T06:31:58.055Z,938.62
2022-07-27T06:32:57.951Z,938.61
2022-07-27T06:33:57.962Z,938.64
2022-07-27T06:34:57.976Z,938.65
2022-07-27T06:35:58.204Z,938.58
2022-07-27T06:36:58.006Z,938.59
2022-07-27T06:37:58.018Z,938.60
2022-07-27T06:38:58.033Z,938.57
2022-07-27T06:39:58.046Z,938.57
2022-07-27T06:40:58.065Z,938.52
2022-07-27T06:41:58.520Z,938.53
2022-07-27T06:42:58.087Z,938.52
2022-07-27T06:43:58.101Z,938.46
2022-07-27T06:44:58.115Z,938.46
2022-07-27T06:45:58.129Z,938.44
2022-07-27T06:46:58.178Z,938.49
2022-07-27T06:47:58.356Z,938.50
2022-07-27T06:48:58.208Z,938.52
2022-07-27T06:49:58.181Z,938.48
2022-07-27T06:50:58.201Z,938.47
2022-07-27T06:51:58.208Z,938.45
2022-07-27T06:52:58.260Z,938.44
2022-07-27T06:53:58.236Z,938.42
2022-07-27T06:54:58.249Z,938.41
2022-07-27T06:55:58.365Z,938.41
2022-07-27T06:56:58.293Z,938.37
2022-07-27T06:57:58.292Z,938.38
2022-07-27T06:58:58.317Z,938.36
2022-07-27T06:59:58.318Z,938.35
2022-07-27T07:00:58.374Z,938.35
2022-07-27T07:01:58.344Z,938.35
2022-07-27T07:02:58.359Z,938.34
2022-07-27T07:03:58.425Z,938.35
2022-07-27T07:04:58.385Z,938.32
2022-07-27T07:05:58.403Z,938.32
2022-07-27T07:06:58.413Z,938.35
2022-07-27T07:07:58.430Z,938.34
2022-07-27T07:08:58.442Z,938.34
2022-07-27T07:09:58.459Z,938.37
2022-07-27T07:10:58.470Z,938.31
2022-07-27T07:11:58.482Z,938.29
2022-07-27T07:12:58.497Z,938.29
2022-07-27T07:13:58.519Z,938.29
2022-07-27T07:14:58.521Z,938.27
2022-07-27T07:15:58.589Z,938.30
2022-07-27T07:16:58.552Z,938.33
2022-07-27T07:17:58.563Z,938.32
2022-07-27T07:18:58.575Z,938.30
2022-07-27T07:19:58.590Z,938.33
2022-07-27T07:20:58.606Z,938.29
2022-07-27T07:21:58.617Z,938.27
2022-07-27T07:22:58.632Z,938.26
2022-07-27T07:23:58.644Z,938.23
2022-07-27T07:25:02.593Z,938.25
2022-07-27T07:25:58.753Z,938.29
2022-07-27T07:26:58.683Z,938.25
2022-07-27T07:27:58.698Z,938.26
2022-07-27T07:28:58.713Z,938.22
2022-07-27T07:29:58.725Z,938.21
2022-07-27T07:30:58.875Z,938.25
2022-07-27T07:31:58.804Z,938.21
2022-07-27T07:32:58.767Z,938.21
2022-07-27T07:33:58.781Z,938.23
2022-07-27T07:34:58.794Z,938.25
2022-07-27T07:36:12.588Z,938.23
2022-07-27T07:36:58.824Z,938.20
2022-07-27T07:37:58.836Z,938.23
2022-07-27T07:38:58.848Z,938.20
2022-07-27T07:40:08.184Z,938.18
2022-07-27T07:40:58.875Z,938.19
2022-07-27T07:41:58.892Z,938.22
2022-07-27T07:42:58.904Z,938.16
2022-07-27T07:43:58.918Z,938.17
2022-07-27T07:44:58.928Z,938.22
2022-07-27T07:45:58.942Z,938.20
2022-07-27T07:46:59.078Z,938.14
2022-07-27T07:47:58.970Z,938.11
2022-07-27T07:48:59.089Z,938.11
2022-07-27T07:49:58.996Z,938.10
2022-07-27T07:50:59.012Z,938.10
2022-07-27T07:51:59.024Z,938.05
2022-07-27T07:52:59.037Z,938.08
2022-07-27T07:53:59.050Z,938.10
2022-07-27T07:54:59.064Z,938.11
2022-07-27T07:55:59.078Z,938.11
2022-07-27T07:56:59.094Z,938.10
2022-07-27T07:57:59.102Z,938.12
2022-07-27T07:58:59.120Z,938.10
2022-07-27T07:59:59.132Z,938.06
2022-07-27T08:00:59.147Z,938.10
2022-07-27T08:01:59.225Z,938.09
2022-07-27T08:02:59.267Z,938.12
2022-07-27T08:03:59.187Z,938.15
2022-07-27T08:04:59.199Z,938.11
2022-07-27T08:05:59.215Z,938.08
2022-07-27T08:06:59.229Z,938.10
2022-07-27T08:07:59.242Z,938.07
2022-07-27T08:08:59.257Z,938.07
2022-07-27T08:09:59.267Z,938.09
2022-07-27T08:10:59.283Z,938.10
2022-07-27T08:11:59.294Z,938.06
2022-07-27T08:12:59.310Z,938.10
2022-07-27T08:13:59.324Z,938.08
2022-07-27T08:14:59.340Z,938.10
2022-07-27T08:15:59.394Z,938.11
2022-07-27T08:16:59.364Z,938.11
2022-07-27T08:17:59.376Z,938.07
2022-07-27T08:18:59.389Z,938.10
2022-07-27T08:19:59.402Z,938.06
2022-07-27T08:20:59.417Z,938.08
2022-07-27T08:21:59.431Z,938.05
2022-07-27T08:22:59.444Z,938.05
2022-07-27T08:23:59.456Z,938.05
2022-07-27T08:24:59.473Z,938.00
2022-07-27T08:26:04.111Z,937.97
2022-07-27T08:26:59.498Z,937.98
2022-07-27T08:27:59.510Z,937.99
2022-07-27T08:28:59.599Z,938.02
2022-07-27T08:29:59.538Z,937.98
2022-07-27T08:30:59.621Z,937.98
2022-07-27T08:31:59.622Z,938.00
2022-07-27T08:32:59.579Z,938.02
2022-07-27T08:33:59.592Z,938.03
2022-07-27T08:34:59.605Z,938.03
2022-07-27T08:35:59.619Z,937.99
2022-07-27T08:36:59.637Z,938.01
2022-07-27T08:37:59.646Z,938.03
2022-07-27T08:38:59.657Z,938.03
2022-07-27T08:40:39.043Z,938.05
2022-07-27T08:40:59.686Z,938.02
2022-07-27T08:41:59.699Z,938.05
2022-07-27T08:42:59.715Z,938.06
2022-07-27T08:43:59.726Z,938.08
2022-07-27T08:44:59.740Z,938.12
2022-07-27T08:46:00.278Z,938.10
2022-07-27T08:46:59.851Z,938.12
2022-07-27T08:47:59.783Z,938.14
2022-07-27T08:48:59.861Z,938.20
2022-07-27T08:49:59.913Z,938.15
2022-07-27T08:50:59.821Z,938.19
2022-07-27T08:51:59.832Z,938.18
2022-07-27T08:52:59.846Z,938.18
2022-07-27T08:53:59.860Z,938.22
2022-07-27T08:54:59.874Z,938.21
2022-07-27T08:55:59.887Z,938.21
2022-07-27T08:56:59.901Z,938.25
2022-07-27T08:58:03.058Z,938.24
2022-07-27T08:58:59.929Z,938.21
2022-07-27T08:59:59.946Z,938.26
2022-07-27T09:01:00.156Z,938.26
2022-07-27T09:02:03.105Z,938.27
2022-07-27T09:03:00.135Z,938.21
2022-07-27T09:03:59.996Z,938.25
2022-07-27T09:05:00.008Z,938.25
2022-07-27T09:06:00.032Z,938.24
2022-07-27T09:07:00.034Z,938.23
2022-07-27T09:08:00.062Z,938.27
2022-07-27T09:09:00.078Z,938.27
2022-07-27T09:10:00.083Z,938.33
2022-07-27T09:11:00.352Z,938.35
2022-07-27T09:12:00.109Z,938.37
2022-07-27T09:13:00.117Z,938.33
2022-07-27T09:14:00.138Z,938.35
2022-07-27T09:15:00.141Z,938.38
2022-07-27T09:17:47.519Z,938.34
2022-07-27T09:18:00.255Z,938.36
2022-07-27T09:19:00.197Z,938.37
2022-07-27T09:20:00.216Z,938.41
2022-07-27T09:21:00.298Z,938.40
2022-07-27T09:22:00.234Z,938.44
2022-07-27T09:23:00.249Z,938.45
2022-07-27T09:24:00.262Z,938.49
2022-07-27T09:25:00.275Z,938.47
2022-07-27T09:26:04.847Z,938.45
2022-07-27T09:27:00.302Z,938.45
2022-07-27T09:28:00.318Z,938.47
2022-07-27T09:29:00.335Z,938.44
2022-07-27T09:30:00.349Z,938.52
2022-07-27T09:31:00.420Z,938.46
2022-07-27T09:32:00.370Z,938.51
2022-07-27T09:33:00.390Z,938.51
2022-07-27T09:34:00.397Z,938.50
2022-07-27T09:35:00.409Z,938.51
2022-07-27T09:36:00.430Z,938.54
2022-07-27T09:37:00.453Z,938.58
2022-07-27T09:38:00.450Z,938.61
2022-07-27T09:39:02.760Z,938.60
2022-07-27T09:40:00.480Z,938.65
2022-07-27T09:41:00.489Z,938.63
2022-07-27T09:42:00.503Z,938.68
2022-07-27T09:43:31.763Z,938.69
2022-07-27T09:45:00.545Z,938.69
2022-07-27T09:46:00.613Z,938.72
2022-07-27T09:47:00.727Z,938.71
2022-07-27T09:48:00.583Z,938.71
2022-07-27T09:49:00.659Z,938.70
2022-07-27T09:50:00.609Z,938.69
2022-07-27T09:51:02.617Z,938.71
2022-07-27T09:52:01.984Z,938.75
2022-07-27T09:53:10.271Z,938.72
2022-07-27T09:54:00.663Z,938.77
2022-07-27T09:55:00.678Z,938.75
2022-07-27T09:56:00.691Z,938.80
2022-07-27T09:57:00.703Z,938.79
2022-07-27T09:58:00.922Z,938.84
2022-07-27T09:59:00.730Z,938.84
2022-07-27T10:00:00.743Z,938.81
2022-07-27T10:01:00.755Z,938.84
2022-07-27T10:02:00.817Z,938.82
2022-07-27T10:03:00.782Z,938.83
2022-07-27T10:04:00.796Z,938.84
2022-07-27T10:05:00.945Z,938.84
2022-07-27T10:06:00.832Z,938.88
2022-07-27T10:07:03.383Z,938.91
2022-07-27T10:08:00.853Z,938.92
2022-07-27T10:09:00.865Z,938.92
2022-07-27T10:10:00.876Z,938.94
2022-07-27T10:11:00.891Z,938.95
2022-07-27T10:12:00.904Z,938.93
2022-07-27T10:13:00.917Z,938.96
2022-07-27T10:14:00.928Z,938.95
2022-07-27T10:15:00.942Z,938.97
2022-07-27T10:16:01.020Z,939.02
2022-07-27T10:17:00.971Z,939.01
2022-07-27T10:18:01.830Z,939.02
2022-07-27T10:19:00.995Z,939.05
2022-07-27T10:20:01.009Z,939.04
2022-07-27T10:21:01.027Z,939.04
2022-07-27T10:22:01.038Z,939.03
2022-07-27T10:23:01.051Z,939.06
2022-07-27T10:24:01.061Z,939.08
2022-07-27T10:25:01.077Z,939.09
2022-07-27T10:26:01.089Z,939.10
2022-07-27T10:27:01.102Z,939.10
2022-07-27T10:28:01.116Z,939.12
2022-07-27T10:29:01.133Z,939.10
2022-07-27T10:30:01.143Z,939.19
2022-07-27T10:31:01.179Z,939.22
2022-07-27T10:32:01.170Z,939.23
2022-07-27T10:33:01.183Z,939.20
2022-07-27T10:34:01.198Z,939.25
2022-07-27T10:35:01.225Z,939.25
2022-07-27T10:36:01.224Z,939.27
2022-07-27T10:37:01.238Z,939.27
2022-07-27T10:38:01.249Z,939.25
2022-07-27T10:39:01.264Z,939.26
2022-07-27T10:40:01.276Z,939.29
2022-07-27T10:41:01.291Z,939.24
2022-07-27T10:42:01.306Z,939.26
2022-07-27T10:43:01.316Z,939.27
2022-07-27T10:44:01.330Z,939.26
2022-07-27T10:45:01.343Z,939.26
2022-07-27T10:46:03.008Z,939.28
2022-07-27T10:47:01.371Z,939.27
2022-07-27T10:48:01.383Z,939.26
2022-07-27T10:49:01.429Z,939.29
2022-07-27T10:50:01.407Z,939.28
2022-07-27T10:51:01.422Z,939.28
2022-07-27T10:52:01.435Z,939.24
2022-07-27T10:53:01.447Z,939.23
2022-07-27T10:54:16.792Z,939.23
2022-07-27T10:55:01.483Z,939.24
2022-07-27T10:56:01.490Z,939.23
2022-07-27T10:57:01.503Z,939.23
2022-07-27T10:58:01.517Z,939.26
2022-07-27T10:59:01.933Z,939.27
2022-07-27T11:00:12.218Z,939.24
2022-07-27T11:01:01.659Z,939.24
2022-07-27T11:02:01.771Z,939.25
2022-07-27T11:03:01.583Z,939.25
2022-07-27T11:04:01.640Z,939.21
2022-07-27T11:05:01.611Z,939.22
2022-07-27T11:06:21.769Z,939.24
2022-07-27T11:09:53.303Z,939.20
2022-07-27T11:10:04.289Z,939.21
2022-07-27T11:11:01.692Z,939.16
2022-07-27T11:12:01.710Z,939.16
2022-07-27T11:13:09.877Z,939.14
2022-07-27T11:14:01.727Z,939.16
2022-07-27T11:15:01.742Z,939.16
2022-07-27T11:16:22.989Z,939.12
2022-07-27T11:17:32.476Z,939.10
2022-07-27T11:18:04.917Z,939.13
2022-07-27T11:19:01.935Z,939.10
2022-07-27T11:20:01.807Z,939.12
2022-07-27T11:21:04.670Z,939.11
2022-07-27T11:22:04.706Z,939.09
2022-07-27T11:24:01.861Z,939.08
2022-07-27T11:25:01.874Z,939.09
2022-07-27T11:26:01.910Z,939.11
2022-07-27T11:27:01.902Z,939.09
2022-07-27T11:28:02.117Z,939.10
2022-07-27T11:29:01.928Z,939.09
2022-07-27T11:30:01.940Z,939.11
2022-07-27T11:31:03.817Z,939.15
2022-07-27T11:32:02.037Z,939.13
2022-07-27T11:33:01.981Z,939.15
2022-07-27T11:34:01.993Z,939.14
2022-07-27T11:35:02.006Z,939.14
2022-07-27T11:36:02.020Z,939.15
2022-07-27T11:37:02.231Z,939.19
2022-07-27T11:38:02.062Z,939.19
2022-07-27T11:39:02.061Z,939.19
2022-07-27T11:40:04.975Z,939.22
2022-07-27T11:41:13.735Z,939.26
2022-07-27T11:42:11.532Z,939.28
2022-07-27T11:43:02.114Z,939.28
2022-07-27T11:44:02.532Z,939.30
2022-07-27T11:45:02.171Z,939.30
2022-07-27T11:46:02.183Z,939.26
2022-07-27T11:47:02.386Z,939.29
2022-07-27T11:48:02.178Z,939.32
2022-07-27T11:50:02.692Z,939.31
2022-07-27T11:51:02.219Z,939.31
2022-07-27T11:52:02.232Z,939.35
2022-07-27T11:53:02.245Z,939.33
2022-07-27T11:54:02.258Z,939.34
2022-07-27T11:55:02.274Z,939.39
2022-07-27T11:56:02.285Z,939.36
2022-07-27T11:57:02.299Z,939.39
2022-07-27T11:58:02.312Z,939.37
2022-07-27T11:59:02.327Z,939.35
2022-07-27T12:00:02.357Z,939.36
2022-07-27T12:01:02.352Z,939.42
2022-07-27T12:02:02.471Z,939.39
2022-07-27T12:03:02.393Z,939.43
2022-07-27T12:04:02.437Z,939.43
2022-07-27T12:05:03.400Z,939.46
2022-07-27T12:06:02.419Z,939.48
2022-07-27T12:07:02.436Z,939.50
2022-07-27T12:08:02.445Z,939.48
2022-07-27T12:09:02.471Z,939.54
2022-07-27T12:10:02.471Z,939.54
2022-07-27T12:11:02.484Z,939.50
2022-07-27T12:12:02.497Z,939.42
2022-07-27T12:13:02.513Z,939.47
2022-07-27T12:14:02.526Z,939.49
2022-07-27T12:15:11.612Z,939.47
2022-07-27T12:16:02.549Z,939.46
2022-07-27T12:17:02.617Z,939.49
2022-07-27T12:18:02.576Z,939.53
2022-07-27T12:19:02.589Z,939.46
2022-07-27T12:20:02.611Z,939.49
2022-07-27T12:21:02.619Z,939.52
2022-07-27T12:22:02.629Z,939.49
2022-07-27T12:23:02.643Z,939.45
2022-07-27T12:24:02.657Z,939.49
2022-07-27T12:25:02.675Z,939.51
2022-07-27T12:26:02.683Z,939.56
2022-07-27T12:27:06.392Z,939.52
2022-07-27T12:28:02.709Z,939.60
2022-07-27T12:29:02.725Z,939.63
2022-07-27T12:30:02.737Z,939.64
2022-07-27T12:31:02.811Z,939.60
2022-07-27T12:32:02.763Z,939.60
2022-07-27T12:33:03.387Z,939.66
2022-07-27T12:34:06.467Z,939.66
2022-07-27T12:35:02.801Z,939.66